Larimer Hill, Indiana
Current Conditions -  °F | °C
As of 1:53 PM on Friday 21 Nov 2014 (Local Time) from KHUF Reporting Station
Clear Clear  
Wind Chill: 29°   Ceiling: Unl
Heat Index: 34°   Visibility: 10mi
Dew Point: 11°   Wind: 6mph
Humidity: 38%   Direction: 180°S
Pressure: 30.44"   Gusts: NA
Location:  39.5107°N, 87.4772°W
Report Text: KHUF 211853Z 18005KT 10SM CLR 01/M12 A3044 RMK AO2 SLP315 T00111117
Loading
Personal Weather Stations






























Interactive Weather Map New forecast layout! Learn more

10-Day Weather Forecast

Advertisements
Track Severe Weather on mobile